Time;durP1;ratioP1;P1;durP2;ratioP2;P2;SDS_P1;SDS_P2;PMS_P1;PMS_P2;Temp;Humidity;BMP_temperature;BMP_pressure;BME280_temperature;BME280_humidity;BME280_pressure;Samples;Min_cycle;Max_cycle;Signal;HPM_P1;HPM_P2
2021/11/16 00:00:52;;;;;;;7.50;4.57;;;;;;;6.79;68.29;97630.03;5093369;28;20377;-66
2021/11/16 00:03:18;;;;;;;7.40;4.82;;;;;;;6.70;68.70;97633.56;5091544;28;20024;-65
2021/11/16 00:05:43;;;;;;;7.30;5.50;;;;;;;6.60;67.73;97631.88;5093435;28;20035;-64
2021/11/16 00:08:09;;;;;;;6.13;4.72;;;;;;;6.63;68.66;97628.38;5092148;28;20394;-68
2021/11/16 00:10:37;;;;;;;8.43;5.30;;;;;;;6.63;68.56;97623.19;5093371;28;20030;-66
2021/11/16 00:13:04;;;;;;;7.47;4.88;;;;;;;6.64;69.42;97622.28;5093356;28;20028;-65
2021/11/16 00:15:30;;;;;;;6.68;4.45;;;;;;;6.61;69.69;97627.50;5093369;28;20034;-66
2021/11/16 00:17:56;;;;;;;8.00;5.45;;;;;;;6.62;69.55;97624.91;5093416;28;20027;-63
2021/11/16 00:20:23;;;;;;;6.18;4.90;;;;;;;6.63;69.93;97624.06;5093141;28;20040;-64
2021/11/16 00:22:49;;;;;;;9.25;5.05;;;;;;;6.67;69.99;97624.88;5093201;28;20413;-67
2021/11/16 00:27:43;;;;;;;9.98;5.32;;;;;;;6.67;69.11;97633.56;5093204;28;20059;-65
2021/11/16 00:30:10;;;;;;;7.90;5.03;;;;;;;6.69;69.17;97630.94;5093180;28;20016;-66
2021/11/16 00:32:36;;;;;;;6.38;4.88;;;;;;;6.73;69.64;97635.25;5093129;28;20027;-64
2021/11/16 00:35:04;;;;;;;7.70;5.25;;;;;;;6.76;70.11;97629.16;5093196;28;20099;-63
2021/11/16 00:37:30;;;;;;;11.05;5.32;;;;;;;6.76;69.72;97626.56;5092964;28;20114;-62
2021/11/16 00:39:59;;;;;;;6.90;5.10;;;;;;;6.75;69.73;97628.31;5093099;28;20103;-64
2021/11/16 00:42:27;;;;;;;7.47;5.13;;;;;;;6.72;68.42;97623.13;5093020;28;20027;-66
2021/11/16 00:44:53;;;;;;;9.10;5.03;;;;;;;6.75;68.61;97625.72;5093038;28;20025;-63
2021/11/16 00:47:19;;;;;;;5.75;4.40;;;;;;;6.73;68.99;97611.84;5092978;28;20485;-65
2021/11/16 00:49:46;;;;;;;7.85;4.55;;;;;;;6.76;69.40;97608.38;5092920;28;20043;-62
2021/11/16 00:52:12;;;;;;;5.88;4.32;;;;;;;6.75;68.63;97610.13;5093084;28;20047;-65
2021/11/16 00:54:38;;;;;;;6.40;4.60;;;;;;;6.70;68.13;97614.47;5092984;28;20386;-63
2021/11/16 00:57:04;;;;;;;8.10;4.68;;;;;;;6.71;68.13;97608.38;5092985;28;20490;-64
2021/11/16 00:59:31;;;;;;;7.65;4.65;;;;;;;6.72;68.08;97604.94;5092762;28;20040;-68
2021/11/16 01:01:57;;;;;;;6.43;4.43;;;;;;;6.77;67.95;97610.97;5092765;28;20024;-65
2021/11/16 01:04:25;;;;;;;10.90;5.25;;;;;;;6.80;68.17;97608.34;5092755;28;20034;-66
2021/11/16 01:06:51;;;;;;;7.07;4.60;;;;;;;6.82;68.68;97605.72;5092697;28;20466;-64
2021/11/16 01:09:17;;;;;;;10.30;4.07;;;;;;;6.83;68.10;97605.72;5092905;28;20023;-66
2021/11/16 01:11:42;;;;;;;5.28;4.20;;;;;;;6.88;68.69;97613.50;5092757;28;20038;-66
2021/11/16 01:14:08;;;;;;;5.95;3.90;;;;;;;6.87;69.07;97604.00;5095601;28;20470;-66
2021/11/16 01:16:34;;;;;;;5.55;3.88;;;;;;;6.87;68.83;97606.59;5096768;28;20484;-66
2021/11/16 01:19:01;;;;;;;5.43;4.20;;;;;;;6.90;69.14;97609.16;5096344;28;20119;-66
2021/11/16 01:21:27;;;;;;;7.28;4.38;;;;;;;6.92;69.06;97612.59;5096553;28;20112;-67
2021/11/16 01:23:52;;;;;;;4.85;3.90;;;;;;;6.93;69.46;97611.72;5096427;28;20485;-68
2021/11/16 01:26:18;;;;;;;6.18;4.13;;;;;;;6.95;69.91;97607.38;5096382;28;20039;-65
2021/11/16 01:28:43;;;;;;;6.00;4.20;;;;;;;6.95;69.93;97611.72;5096383;28;20020;-65
2021/11/16 01:31:09;;;;;;;7.22;4.30;;;;;;;6.94;69.52;97603.06;5096401;28;20024;-67
2021/11/16 01:36:10;;;;;;;7.00;5.03;;;;;;;6.87;69.67;97605.72;5096298;28;20366;-65
2021/11/16 01:38:37;;;;;;;7.93;4.97;;;;;;;6.77;69.60;97608.34;5096142;28;20020;-65
2021/11/16 01:41:04;;;;;;;11.70;5.90;;;;;;;6.77;69.61;97612.72;5096136;28;20085;-63
2021/11/16 01:43:30;;;;;;;9.60;5.50;;;;;;;6.79;69.81;97618.75;5095964;28;20537;-66
2021/11/16 01:45:57;;;;;;;8.25;5.68;;;;;;;6.81;70.25;97606.63;5096042;28;20099;-65
2021/11/16 01:48:24;;;;;;;12.18;9.55;;;;;;;6.83;70.41;97613.53;5095953;28;20028;-65
2021/11/16 01:50:50;;;;;;;8.10;5.32;;;;;;;6.82;70.56;97608.34;5095851;28;20032;-65
2021/11/16 01:53:15;;;;;;;7.30;5.18;;;;;;;6.87;70.65;97617.00;5095931;28;20035;-66
2021/11/16 01:55:41;;;;;;;7.30;4.80;;;;;;;6.88;70.61;97615.22;5095921;28;20070;-62
2021/11/16 01:58:07;;;;;;;7.47;5.22;;;;;;;6.88;70.11;97610.03;5095965;28;20069;-65
2021/11/16 02:00:37;;;;;;;12.75;4.70;;;;;;;6.79;70.06;97610.94;5095738;28;20081;-63
2021/11/16 02:03:04;;;;;;;4.20;3.45;;;;;;;6.72;70.55;97602.34;5095729;28;20073;-68
2021/11/16 02:05:45;;;;;;;7.20;4.97;;;;;;;6.66;70.77;97604.97;5095761;28;20024;-67
2021/11/16 02:08:13;;;;;;;8.52;4.53;;;;;;;6.69;70.45;97612.75;5095631;28;20048;-67
2021/11/16 02:10:41;;;;;;;6.45;4.97;;;;;;;6.68;70.90;97608.41;5095693;28;20579;-64
2021/11/16 02:13:06;;;;;;;6.20;5.15;;;;;;;6.67;71.24;97610.16;5095434;28;20543;-63
2021/11/16 02:15:36;;;;;;;7.47;4.78;;;;;;;6.69;71.44;97612.75;5095555;28;20040;-67
2021/11/16 02:18:07;;;;;;;6.50;4.70;;;;;;;6.72;71.20;97617.06;5095351;28;20085;-65
2021/11/16 02:20:33;;;;;;;10.00;5.70;;;;;;;6.73;71.22;97613.59;5095158;28;20051;-67
2021/11/16 02:22:58;;;;;;;8.18;4.95;;;;;;;6.77;71.18;97608.34;5095271;28;20028;-63
2021/11/16 02:25:24;;;;;;;7.13;5.30;;;;;;;6.76;71.58;97600.56;5094617;28;20488;-62
2021/11/16 02:27:50;;;;;;;7.20;5.28;;;;;;;6.75;71.08;97601.44;5095206;28;20077;-64
2021/11/16 02:30:19;;;;;;;8.43;5.57;;;;;;;6.77;70.13;97597.13;5095282;28;20032;-64
2021/11/16 02:32:46;;;;;;;6.78;5.18;;;;;;;6.72;69.45;97594.53;5095206;28;20081;-66
2021/11/16 02:35:15;;;;;;;7.07;4.68;;;;;;;6.71;69.33;97597.97;5095146;28;20047;-65
2021/11/16 02:37:41;;;;;;;7.10;5.13;;;;;;;6.73;70.47;97590.19;5094961;28;20382;-64
2021/11/16 02:40:08;;;;;;;9.32;4.07;;;;;;;6.77;71.42;97594.50;5094972;28;20028;-65
2021/11/16 02:42:35;;;;;;;6.22;4.25;;;;;;;6.78;70.64;97591.91;5094939;28;20024;-67
2021/11/16 02:45:01;;;;;;;7.68;4.93;;;;;;;6.81;70.06;97588.41;5094847;28;20024;-64
2021/11/16 02:47:27;;;;;;;8.15;4.82;;;;;;;6.76;70.41;97585.84;5094848;28;20055;-67
2021/11/16 02:49:56;;;;;;;7.53;4.57;;;;;;;6.79;70.30;97584.94;5094843;28;20488;-65
2021/11/16 02:52:22;;;;;;;6.20;4.45;;;;;;;6.81;71.26;97586.66;5094664;28;20016;-68
2021/11/16 02:54:50;;;;;;;6.00;4.30;;;;;;;6.82;71.59;97587.53;5094821;28;20111;-63
2021/11/16 02:57:16;;;;;;;5.55;4.50;;;;;;;6.77;71.72;97587.56;5094713;28;20466;-65
2021/11/16 02:59:42;;;;;;;9.25;4.18;;;;;;;6.77;70.95;97586.72;5094627;28;20119;-68
2021/11/16 03:02:11;;;;;;;8.85;5.25;;;;;;;6.77;71.45;97584.09;5094605;28;20039;-62
2021/11/16 03:04:43;;;;;;;6.45;4.22;;;;;;;6.73;71.79;97580.66;5094526;28;20099;-64
2021/11/16 03:07:10;;;;;;;9.95;5.63;;;;;;;6.68;69.64;97578.06;5094702;28;20107;-66
2021/11/16 03:09:37;;;;;;;7.88;5.18;;;;;;;6.65;69.49;97580.69;5094551;28;20026;-67
2021/11/16 03:12:03;;;;;;;7.45;4.90;;;;;;;6.57;69.20;97574.69;5094492;28;20028;-64
2021/11/16 03:14:30;;;;;;;7.80;5.93;;;;;;;6.62;69.20;97587.66;5094230;28;20063;-64
2021/11/16 03:16:56;;;;;;;6.43;4.78;;;;;;;6.63;69.00;97591.97;5094147;28;20028;-62
2021/11/16 03:19:23;;;;;;;8.55;5.22;;;;;;;6.67;69.02;97594.56;5094035;28;20082;-67
2021/11/16 03:21:58;;;;;;;11.55;5.80;;;;;;;6.62;68.75;97598.91;5094314;28;20032;-68
2021/11/16 03:24:32;;;;;;;8.63;5.05;;;;;;;6.67;68.64;97593.69;5094313;28;20119;-64
2021/11/16 03:26:57;;;;;;;9.30;5.07;;;;;;;6.71;68.63;97590.19;5094117;28;20060;-67
2021/11/16 03:29:25;;;;;;;9.38;5.80;;;;;;;6.72;68.90;97589.34;5094240;28;20504;-65
2021/11/16 03:32:00;;;;;;;11.30;5.50;;;;;;;6.77;69.39;97597.13;5094083;28;20107;-65
2021/11/16 03:34:28;;;;;;;10.25;5.45;;;;;;;6.78;69.57;97598.81;5094077;28;20024;-62
2021/11/16 03:36:54;;;;;;;8.65;4.82;;;;;;;6.70;69.37;97591.94;5093105;28;20130;-65
2021/11/16 03:39:20;;;;;;;9.15;5.38;;;;;;;6.67;68.82;97591.94;5093902;28;20111;-64
2021/11/16 03:41:46;;;;;;;8.75;5.22;;;;;;;6.70;68.83;97589.34;5093888;28;20031;-65
2021/11/16 03:44:12;;;;;;;6.53;5.28;;;;;;;6.72;68.99;97596.25;5093674;28;20032;-64
2021/11/16 03:46:37;;;;;;;7.45;5.43;;;;;;;6.65;69.25;97596.28;5093818;28;20024;-64
2021/11/16 03:49:03;;;;;;;8.23;5.30;;;;;;;6.61;69.36;97596.31;5093831;28;20108;-65
2021/11/16 03:51:29;;;;;;;9.88;5.97;;;;;;;6.60;69.52;97598.06;5093643;28;20035;-65
2021/11/16 03:53:54;;;;;;;9.98;5.38;;;;;;;6.60;69.77;97599.78;5093649;28;20069;-65
2021/11/16 03:56:20;;;;;;;8.18;5.25;;;;;;;6.54;69.77;97598.09;5093572;28;20016;-65
2021/11/16 03:58:47;;;;;;;10.00;6.18;;;;;;;6.51;70.02;97604.19;5093631;28;20462;-63
2021/11/16 04:01:13;;;;;;;14.45;5.75;;;;;;;6.55;70.12;97602.41;5093530;28;20487;-60
2021/11/16 04:03:41;;;;;;;8.10;5.90;;;;;;;6.59;70.31;97604.13;5093462;28;20027;-62
2021/11/16 04:06:07;;;;;;;9.25;6.45;;;;;;;6.58;70.48;97594.59;5093536;28;20023;-66
2021/11/16 04:08:34;;;;;;;11.15;5.97;;;;;;;6.60;70.22;97592.88;5093365;28;20029;-63
2021/11/16 04:11:00;;;;;;;14.88;6.80;;;;;;;6.55;70.19;97592.88;5093392;28;20480;-64
2021/11/16 04:13:26;;;;;;;9.40;6.63;;;;;;;6.49;70.83;97594.63;5093568;28;20132;-62
2021/11/16 04:15:52;;;;;;;13.90;6.28;;;;;;;6.44;71.11;97589.44;5093338;28;20461;-65
2021/11/16 04:18:20;;;;;;;9.30;6.25;;;;;;;6.42;71.39;97589.47;5093225;28;20351;-68
2021/11/16 04:20:48;;;;;;;10.48;7.32;;;;;;;6.40;71.39;97586.03;5093236;28;20046;-66
2021/11/16 04:23:17;;;;;;;9.63;7.03;;;;;;;6.41;71.25;97587.72;5093069;28;20112;-64
2021/11/16 04:25:43;;;;;;;9.90;6.47;;;;;;;6.44;71.21;97592.06;5093205;28;20032;-66
2021/11/16 04:28:11;;;;;;;11.27;6.88;;;;;;;6.39;71.65;97591.22;5093070;28;20027;-64
2021/11/16 04:30:37;;;;;;;13.32;7.35;;;;;;;6.34;72.16;97599.03;5093093;28;20078;-68
2021/11/16 04:33:04;;;;;;;16.13;7.75;;;;;;;6.40;72.45;97599.00;5093013;28;20021;-63
2021/11/16 04:35:31;;;;;;;12.20;8.43;;;;;;;6.39;72.65;97592.09;5093290;28;20423;-65
2021/11/16 04:38:06;;;;;;;14.45;7.90;;;;;;;6.42;73.11;97597.25;5093147;28;20031;-66
2021/11/16 04:40:37;;;;;;;13.05;8.07;;;;;;;6.39;73.22;97597.28;5093193;28;20098;-67
2021/11/16 04:43:09;;;;;;;12.45;7.80;;;;;;;6.41;73.95;97605.94;5093097;28;20024;-64
2021/11/16 04:45:38;;;;;;;12.60;7.97;;;;;;;6.34;74.15;97600.75;5093040;28;20466;-64
2021/11/16 04:48:09;;;;;;;14.32;8.57;;;;;;;6.30;74.43;97602.53;5093987;28;20024;-63
2021/11/16 04:53:48;;;;;;;13.30;9.10;;;;;;;6.27;75.22;97594.75;5097333;28;20501;-65
2021/11/16 05:04:15;;;;;;;14.18;8.88;;;;;;;6.14;76.00;97591.31;5096998;28;20043;-65
2021/11/16 05:06:41;;;;;;;15.00;9.13;;;;;;;6.16;75.71;97595.63;5096920;28;20020;-68
2021/11/16 05:09:07;;;;;;;14.35;8.43;;;;;;;6.19;75.79;97589.56;5096782;28;20051;-67
2021/11/16 05:11:32;;;;;;;18.33;8.85;;;;;;;6.15;75.63;97580.06;5096801;28;20052;-65
2021/11/16 05:13:58;;;;;;;21.70;10.05;;;;;;;6.18;76.09;97585.25;5096681;28;20016;-65
2021/11/16 05:16:25;;;;;;;15.40;9.20;;;;;;;6.12;75.99;97580.06;5096675;28;20020;-66
2021/11/16 05:18:51;;;;;;;18.63;9.30;;;;;;;6.12;75.36;97575.75;5096391;28;20068;-66
2021/11/16 05:21:18;;;;;;;15.45;8.55;;;;;;;6.14;75.07;97583.53;5096778;28;20519;-63
2021/11/16 05:23:53;;;;;;;17.02;9.18;;;;;;;6.15;74.57;97591.31;5096493;28;20069;-65
2021/11/16 05:26:19;;;;;;;13.13;8.32;;;;;;;6.18;74.48;97598.25;5096526;28;20043;-63
2021/11/16 05:28:46;;;;;;;13.75;8.32;;;;;;;6.15;74.32;97598.25;5096417;28;20119;-67
2021/11/16 05:31:13;;;;;;;13.95;8.38;;;;;;;6.22;74.08;97604.28;5096354;28;20031;-66
2021/11/16 05:33:39;;;;;;;11.50;7.70;;;;;;;6.29;74.15;97603.41;5096302;28;20026;-63
2021/11/16 05:36:05;;;;;;;12.00;8.90;;;;;;;6.37;73.72;97604.22;5096462;28;20470;-63
2021/11/16 05:38:34;;;;;;;12.55;7.50;;;;;;;6.36;73.64;97597.31;5096203;28;20028;-67
2021/11/16 05:41:01;;;;;;;11.27;7.90;;;;;;;6.42;73.47;97596.41;5096119;28;20035;-64
2021/11/16 05:43:28;;;;;;;14.93;8.20;;;;;;;6.46;73.47;97595.53;5096062;28;20077;-68
2021/11/16 05:45:55;;;;;;;15.40;8.55;;;;;;;6.55;72.66;97605.00;5096028;28;20032;-68
2021/11/16 05:48:23;;;;;;;11.73;8.25;;;;;;;6.60;72.65;97616.25;5096044;28;20102;-66
2021/11/16 05:50:49;;;;;;;14.13;7.80;;;;;;;6.62;72.56;97611.91;5095993;28;20131;-65
2021/11/16 05:53:16;;;;;;;12.65;8.52;;;;;;;6.62;72.57;97618.84;5095884;28;20104;-65
2021/11/16 05:55:46;;;;;;;11.65;8.02;;;;;;;6.72;72.85;97619.66;5095858;28;20362;-63
2021/11/16 05:58:19;;;;;;;8.75;6.88;;;;;;;6.71;72.55;97618.78;5095971;28;20085;-61
2021/11/16 06:00:45;;;;;;;14.00;7.90;;;;;;;6.74;72.50;97633.53;5094744;28;20046;-65
2021/11/16 06:03:11;;;;;;;12.73;7.25;;;;;;;6.74;71.74;97630.94;5095636;28;20047;-63
2021/11/16 06:05:37;;;;;;;9.77;7.18;;;;;;;6.77;71.70;97631.75;5095722;28;20347;-66
2021/11/16 06:08:04;;;;;;;10.65;6.88;;;;;;;6.87;71.08;97629.13;5095674;28;20024;-65
2021/11/16 06:10:29;;;;;;;10.57;7.03;;;;;;;6.81;71.34;97617.88;5095695;28;20019;-65
2021/11/16 06:12:55;;;;;;;10.82;7.93;;;;;;;6.83;71.81;97623.06;5095619;28;20504;-65
2021/11/16 06:15:21;;;;;;;13.18;7.75;;;;;;;6.90;72.06;97629.09;5095507;28;20542;-67
2021/11/16 06:17:47;;;;;;;11.20;7.32;;;;;;;6.84;72.22;97640.41;5095319;28;20024;-67
2021/11/16 06:20:17;;;;;;;11.07;7.00;;;;;;;6.91;71.52;97628.22;5095200;28;20056;-64
2021/11/16 06:22:43;;;;;;;12.35;6.97;;;;;;;6.95;71.51;97624.72;5095466;28;20039;-68
2021/11/16 06:25:09;;;;;;;13.45;6.75;;;;;;;6.97;71.56;97633.41;5095447;28;20036;-65
2021/11/16 06:27:35;;;;;;;11.50;7.20;;;;;;;7.00;71.23;97633.38;5095308;28;20436;-65
2021/11/16 06:30:00;;;;;;;9.43;6.57;;;;;;;7.01;71.41;97623.84;5095175;28;20107;-65
2021/11/16 06:32:28;;;;;;;10.40;6.55;;;;;;;7.08;70.91;97628.13;5095161;28;20062;-65
2021/11/16 06:34:55;;;;;;;9.27;6.60;;;;;;;7.09;71.08;97624.66;5095217;28;20020;-67
2021/11/16 06:37:21;;;;;;;9.65;7.22;;;;;;;7.14;70.82;97615.09;5095040;28;20028;-64
2021/11/16 06:39:50;;;;;;;12.88;6.35;;;;;;;7.16;70.23;97617.66;5095051;28;20547;-68
2021/11/16 06:42:16;;;;;;;9.52;6.50;;;;;;;7.20;69.88;97617.63;5093627;28;20028;-63
2021/11/16 06:44:43;;;;;;;9.55;6.72;;;;;;;7.26;69.70;97624.53;5094929;28;20024;-67
2021/11/16 06:47:18;;;;;;;11.25;6.07;;;;;;;7.29;69.39;97621.03;5094857;28;20028;-65
2021/11/16 06:49:49;;;;;;;10.05;7.05;;;;;;;7.25;69.57;97616.75;5094909;28;20028;-65
2021/11/16 06:52:14;;;;;;;;;;;;;;;7.21;69.83;97621.09;5095230;28;20032;-67
2021/11/16 06:54:40;;;;;;;11.20;6.30;;;;;;;7.20;69.44;97622.81;5094718;28;20332;-65
2021/11/16 06:57:06;;;;;;;9.82;6.18;;;;;;;7.19;69.17;97625.44;5094755;28;20058;-62
2021/11/16 06:59:32;;;;;;;9.57;6.68;;;;;;;7.18;68.86;97627.19;5094636;28;20081;-67
2021/11/16 07:01:58;;;;;;;10.57;6.90;;;;;;;7.24;68.67;97631.50;5094594;28;20024;-65
2021/11/16 07:04:24;;;;;;;10.88;5.75;;;;;;;7.27;68.63;97628.88;5094461;28;20493;-62
2021/11/16 07:06:52;;;;;;;11.93;6.20;;;;;;;7.30;68.75;97634.06;5094593;28;20035;-67
2021/11/16 07:09:20;;;;;;;9.10;6.65;;;;;;;7.34;68.83;97634.88;5094459;28;20111;-68
2021/11/16 07:11:54;;;;;;;11.52;6.47;;;;;;;7.36;68.37;97634.88;5094272;28;20024;-66
2021/11/16 07:14:23;;;;;;;11.35;6.05;;;;;;;7.37;68.87;97637.47;5094487;28;20537;-64
2021/11/16 07:17:00;;;;;;;7.43;6.20;;;;;;;7.44;69.18;97633.94;5094286;28;20036;-66
2021/11/16 07:19:54;;;;;;;9.57;5.93;;;;;;;7.42;68.31;97638.31;5094016;28;20543;-66
2021/11/16 07:22:27;;;;;;;8.85;6.57;;;;;;;7.38;68.68;97635.72;5092582;28;20509;-65
2021/11/16 07:25:13;;;;;;;9.27;6.20;;;;;;;7.36;68.78;97632.25;5094156;28;20042;-66
2021/11/16 07:27:43;;;;;;;9.52;6.10;;;;;;;7.42;68.82;97632.22;5094032;28;20097;-67
2021/11/16 07:30:12;;;;;;;10.07;6.57;;;;;;;7.47;69.20;97633.06;5093980;28;20016;-63
2021/11/16 07:32:53;;;;;;;9.90;6.70;;;;;;;7.46;68.68;97632.19;5093951;28;20024;-61
2021/11/16 07:35:28;;;;;;;8.27;6.00;;;;;;;7.43;69.25;97636.53;5094040;28;20028;-66
2021/11/16 07:37:56;;;;;;;9.02;6.15;;;;;;;7.48;68.60;97640.00;5093988;28;20028;-66
2021/11/16 07:40:23;;;;;;;8.10;5.68;;;;;;;7.46;69.09;97645.19;5093858;28;20012;-65
2021/11/16 07:43:07;;;;;;;11.68;6.80;;;;;;;7.48;68.74;97640.00;5093882;28;20556;-65
2021/11/16 07:45:38;;;;;;;8.93;6.25;;;;;;;7.47;68.72;97640.88;5093850;28;20081;-64
2021/11/16 07:48:07;;;;;;;11.18;6.78;;;;;;;7.48;68.84;97636.50;5093749;28;20021;-63
2021/11/16 07:50:32;;;;;;;10.35;7.25;;;;;;;7.42;68.73;97635.69;5093774;28;20024;-63
2021/11/16 07:53:29;;;;;;;9.73;6.30;;;;;;;7.43;68.77;97640.03;5093619;28;20427;-66
2021/11/16 07:56:11;;;;;;;9.88;6.38;;;;;;;7.39;68.90;97648.75;5093675;28;20386;-62
2021/11/16 07:58:40;;;;;;;7.85;6.43;;;;;;;7.37;69.86;97647.88;5093564;28;20051;-67
2021/11/16 08:01:35;;;;;;;11.70;6.80;;;;;;;7.38;70.05;97643.53;5093631;28;20025;-62
2021/11/16 08:04:38;;;;;;;9.60;6.30;;;;;;;7.36;70.02;97638.34;5093552;28;20486;-65
2021/11/16 08:07:08;;;;;;;10.57;6.78;;;;;;;7.35;69.81;97646.16;5093088;28;20076;-65
2021/11/16 08:12:41;;;;;;;12.10;6.85;;;;;;;7.35;70.13;97647.03;5093422;28;20030;-62
2021/11/16 08:15:03;;;;;;;9.20;6.88;;;;;;;7.38;70.07;97652.22;5092166;28;20087;-65
2021/11/16 08:17:29;;;;;;;;;;;;;;;7.43;70.05;97654.78;5093787;28;20036;-66
2021/11/16 08:20:02;;;;;;;9.05;6.35;;;;;;;7.48;69.87;97644.31;5093217;28;20281;-64
2021/11/16 08:22:28;;;;;;;9.00;6.60;;;;;;;7.51;70.37;97641.69;5092712;28;20040;-67
2021/11/16 08:24:56;;;;;;;9.20;6.70;;;;;;;7.64;69.28;97642.44;5093169;28;20043;-66
2021/11/16 08:27:26;;;;;;;9.65;6.45;;;;;;;7.72;68.88;97643.25;5093381;28;20035;-63
2021/11/16 08:30:01;;;;;;;8.98;6.45;;;;;;;7.80;68.48;97644.03;5093226;28;20031;-65
2021/11/16 08:32:34;;;;;;;12.65;6.65;;;;;;;7.79;68.20;97642.31;5093320;28;20085;-67
2021/11/16 08:35:03;;;;;;;10.50;6.50;;;;;;;7.84;68.25;97642.28;5093147;28;20588;-66
2021/11/16 08:37:37;;;;;;;11.35;7.25;;;;;;;7.82;68.19;97642.28;5093149;28;20016;-65
2021/11/16 08:40:10;;;;;;;9.38;6.63;;;;;;;7.90;67.73;97637.03;5093228;28;20086;-63
2021/11/16 08:42:40;;;;;;;11.10;6.45;;;;;;;7.99;67.69;97641.28;5093101;28;20515;-61
2021/11/16 08:45:06;;;;;;;9.73;6.32;;;;;;;8.05;67.41;97643.81;5092917;28;20028;-66
2021/11/16 08:47:48;;;;;;;8.80;6.43;;;;;;;8.09;66.43;97644.63;5092990;28;20502;-68
2021/11/16 08:50:28;;;;;;;8.13;6.78;;;;;;;8.03;67.29;97644.69;5093047;28;20028;-63
2021/11/16 08:52:59;;;;;;;10.40;7.35;;;;;;;8.04;67.24;97634.25;5093174;28;20024;-63
2021/11/16 08:55:31;;;;;;;11.40;7.43;;;;;;;8.17;67.98;97641.97;5092930;28;20027;-67
2021/11/16 08:57:59;;;;;;;11.90;7.22;;;;;;;8.22;66.52;97646.25;5093069;28;20106;-65
2021/11/16 09:00:28;;;;;;;16.42;8.18;;;;;;;8.16;67.29;97628.06;5093060;28;20081;-65
2021/11/16 09:03:18;;;;;;;11.48;7.93;;;;;;;8.21;66.61;97635.81;5093011;28;20163;-64
2021/11/16 09:05:50;;;;;;;12.18;7.38;;;;;;;8.26;67.76;97635.78;5092834;28;20382;-66
2021/11/16 09:08:23;;;;;;;10.35;7.55;;;;;;;8.32;66.77;97623.56;5091583;28;20381;-64
2021/11/16 09:10:57;;;;;;;13.25;7.45;;;;;;;8.39;66.38;97620.84;5093017;28;20035;-65
2021/11/16 09:13:26;;;;;;;8.68;6.93;;;;;;;8.40;66.43;97631.25;5092894;28;20031;-67
2021/11/16 09:15:56;;;;;;;10.00;7.43;;;;;;;8.41;65.96;97629.53;5092713;28;20032;-66
2021/11/16 09:18:29;;;;;;;12.43;7.60;;;;;;;8.40;66.42;97626.03;5092325;28;20024;-62
2021/11/16 09:21:02;;;;;;;10.68;7.38;;;;;;;8.52;66.03;97621.59;5092754;28;20028;-64
2021/11/16 09:23:35;;;;;;;12.65;7.55;;;;;;;8.49;66.31;97617.25;5092706;28;20386;-65
2021/11/16 09:26:06;;;;;;;14.05;7.60;;;;;;;8.56;66.07;97612.88;5092703;28;20021;-62
2021/11/16 09:28:35;;;;;;;12.15;7.43;;;;;;;8.64;65.62;97608.41;5092658;28;20016;-65
2021/11/16 09:31:17;;;;;;;12.05;7.57;;;;;;;8.80;65.99;97603.84;5092482;28;20119;-64
2021/11/16 09:33:44;;;;;;;12.00;7.43;;;;;;;9.01;64.78;97614.88;5093021;28;20024;-65
2021/11/16 09:36:25;;;;;;;12.38;8.68;;;;;;;9.09;65.50;97609.50;5096266;28;20047;-65
2021/11/16 09:38:57;;;;;;;9.88;7.85;;;;;;;9.08;64.23;97607.78;5096511;28;20377;-67
2021/11/16 09:41:36;;;;;;;14.13;8.40;;;;;;;9.00;64.41;97609.66;5096264;28;20028;-63
2021/11/16 09:44:24;;;;;;;10.60;7.72;;;;;;;9.01;64.73;97600.94;5096051;28;20028;-67
2021/11/16 09:46:58;;;;;;;12.45;7.43;;;;;;;9.00;64.86;97592.25;5096225;28;20038;-62
2021/11/16 09:49:43;;;;;;;10.18;7.68;;;;;;;9.08;65.31;97602.56;5096161;28;20024;-63
2021/11/16 09:52:11;;;;;;;12.90;8.20;;;;;;;9.07;64.66;97599.13;5096089;28;20024;-66
2021/11/16 09:54:52;;;;;;;12.80;7.70;;;;;;;9.14;64.51;97605.09;5095848;28;20035;-66
2021/11/16 09:57:21;;;;;;;13.35;7.78;;;;;;;9.14;63.97;97597.28;5096010;28;20024;-66
2021/11/16 09:59:48;;;;;;;12.95;8.20;;;;;;;9.18;64.58;97585.88;5095925;28;20028;-64
2021/11/16 10:02:23;;;;;;;15.55;8.50;;;;;;;9.28;64.33;97578.78;5095934;28;20024;-64
2021/11/16 10:04:51;;;;;;;12.48;8.65;;;;;;;9.32;64.56;97574.34;5095769;28;20028;-65
2021/11/16 10:07:19;;;;;;;15.25;7.68;;;;;;;9.37;65.39;97576.91;5095712;28;20074;-64
2021/11/16 10:09:49;;;;;;;14.00;6.53;;;;;;;9.45;64.79;97580.25;5095556;28;20022;-65
2021/11/16 10:12:17;;;;;;;11.05;6.40;;;;;;;9.46;65.33;97580.19;5095674;28;20024;-62
2021/11/16 10:14:44;;;;;;;11.05;5.10;;;;;;;9.47;64.50;97574.13;5095562;28;20486;-64
2021/11/16 10:17:10;;;;;;;9.27;4.80;;;;;;;9.40;64.90;97576.84;5095643;28;20475;-63
2021/11/16 10:19:37;;;;;;;8.45;4.63;;;;;;;9.46;64.90;97582.81;5095144;28;20042;-64
2021/11/16 10:22:09;;;;;;;9.32;5.28;;;;;;;9.57;65.01;97577.41;5095449;28;20087;-65
2021/11/16 10:24:36;;;;;;;11.07;5.00;;;;;;;9.59;64.32;97569.56;5095414;28;20484;-63
2021/11/16 10:27:33;;;;;;;9.05;5.32;;;;;;;9.54;64.54;97563.56;5095445;28;20069;-67
2021/11/16 10:30:12;;;;;;;12.32;5.85;;;;;;;9.60;64.86;97560.81;5091011;28;20044;-65
2021/11/16 10:32:41;;;;;;;9.52;5.47;;;;;;;9.90;65.20;97547.25;5095296;28;20024;-63
2021/11/16 10:35:18;;;;;;;9.35;5.40;;;;;;;10.07;63.66;97541.66;5095137;28;20052;-62
2021/11/16 10:37:51;;;;;;;10.45;4.80;;;;;;;10.03;62.32;97537.41;5095062;28;20382;-63
2021/11/16 10:40:19;;;;;;;9.38;5.05;;;;;;;9.90;63.02;97539.41;5095090;28;20020;-63
2021/11/16 10:42:57;;;;;;;10.85;4.78;;;;;;;9.93;63.25;97534.97;5094933;28;20498;-62
2021/11/16 10:45:27;;;;;;;6.75;4.72;;;;;;;9.93;63.53;97541.97;5094542;28;20036;-68
2021/11/16 10:48:09;;;;;;;7.93;4.13;;;;;;;9.88;61.69;97546.41;5094932;28;20038;-62
2021/11/16 10:50:37;;;;;;;7.20;3.65;;;;;;;9.83;61.27;97536.91;5094926;28;20036;-65
2021/11/16 10:53:08;;;;;;;10.30;3.78;;;;;;;9.99;61.33;97531.34;5094877;28;20023;-63
2021/11/16 10:55:59;;;;;;;12.88;4.00;;;;;;;10.27;60.96;97514.25;5095341;28;20051;-65
2021/11/16 10:58:27;;;;;;;11.23;3.80;;;;;;;10.31;59.90;97521.13;5094735;28;20034;-66
2021/11/16 11:01:02;;;;;;;7.53;3.85;;;;;;;10.35;59.27;97531.50;5094696;28;20038;-63
2021/11/16 11:03:40;;;;;;;8.82;3.78;;;;;;;10.29;58.62;97528.16;5094633;28;20081;-62
2021/11/16 11:06:07;;;;;;;8.50;3.78;;;;;;;10.08;59.94;97510.25;5094691;28;20043;-66
2021/11/16 11:08:41;;;;;;;10.80;4.13;;;;;;;10.09;59.55;97529.44;5094426;28;20086;-62
2021/11/16 11:11:41;;;;;;;16.27;4.28;;;;;;;10.05;58.74;97515.56;5094492;28;20122;-66
2021/11/16 11:14:20;;;;;;;11.23;3.72;;;;;;;10.05;58.96;97520.78;5094502;28;20016;-64
2021/11/16 11:16:54;;;;;;;10.10;3.88;;;;;;;9.88;59.05;97517.66;5094300;28;20043;-66
2021/11/16 11:19:27;;;;;;;9.02;4.57;;;;;;;9.86;59.63;97522.91;5093992;28;20063;-66
2021/11/16 11:22:03;;;;;;;9.35;4.38;;;;;;;9.84;59.99;97524.66;5094243;28;20032;-67
2021/11/16 11:27:43;;;;;;;6.28;4.10;;;;;;;9.83;59.82;97521.22;5085448;28;20071;-66
2021/11/16 11:30:14;;;;;;;7.95;4.85;;;;;;;9.98;60.32;97520.06;5094151;28;20062;-67
2021/11/16 11:32:43;;;;;;;10.30;4.47;;;;;;;10.22;60.31;97516.97;5094041;28;20059;-66
2021/11/16 11:35:09;;;;;;;9.40;4.30;;;;;;;10.52;60.64;97500.66;5094008;28;20020;-66
2021/11/16 11:38:08;;;;;;;11.40;4.85;;;;;;;10.75;59.45;97526.31;5094003;28;20031;-66
2021/11/16 11:40:39;;;;;;;11.18;4.90;;;;;;;10.66;60.09;97500.34;5084880;28;20032;-64
2021/11/16 11:43:18;;;;;;;8.63;4.55;;;;;;;10.71;59.52;97524.66;5093879;28;20028;-64
2021/11/16 11:45:47;;;;;;;11.32;5.07;;;;;;;10.56;59.61;97516.25;5093891;28;20042;-64
2021/11/16 11:48:19;;;;;;;11.40;5.85;;;;;;;10.34;60.88;97502.75;5093758;28;20036;-67
2021/11/16 11:51:12;;;;;;;9.48;5.70;;;;;;;10.29;61.79;97510.69;5093808;28;20089;-66
2021/11/16 11:53:41;;;;;;;20.33;6.07;;;;;;;10.14;61.27;97509.28;5093781;28;20493;-64
2021/11/16 11:56:15;;;;;;;12.35;5.18;;;;;;;10.10;60.70;97511.09;5093618;28;20035;-66
2021/11/16 11:58:44;;;;;;;15.38;5.47;;;;;;;9.99;61.00;97526.13;5092800;28;20081;-62
2021/11/16 12:01:12;;;;;;;8.95;4.88;;;;;;;9.88;61.48;97508.06;5093688;28;20380;-66
2021/11/16 12:03:45;;;;;;;12.50;5.05;;;;;;;9.73;61.87;97512.69;5093545;28;20024;-64
2021/11/16 12:06:12;;;;;;;10.70;4.68;;;;;;;9.73;61.73;97504.84;5093736;28;20127;-64
2021/11/16 12:08:39;;;;;;;11.15;4.95;;;;;;;9.82;61.96;97511.63;5093442;28;20073;-64
2021/11/16 12:11:07;;;;;;;9.85;4.13;;;;;;;9.76;61.52;97511.78;5093379;28;20485;-67